sensor_id;sensor_type;location;lat;lon;timestamp;P1;durP1;ratioP1;P2;durP2;ratioP2
9972;SDS011;5027;53.560;10.062;2023-11-19T00:00:08;5.87;;;5.37;;
9972;SDS011;5027;53.560;10.062;2023-11-19T00:02:40;6.03;;;5.43;;
9972;SDS011;5027;53.560;10.062;2023-11-19T00:05:08;6.00;;;5.47;;
9972;SDS011;5027;53.560;10.062;2023-11-19T00:07:35;5.40;;;4.90;;
9972;SDS011;5027;53.560;10.062;2023-11-19T00:10:03;5.60;;;5.10;;
9972;SDS011;5027;53.560;10.062;2023-11-19T00:12:33;5.00;;;4.60;;
9972;SDS011;5027;53.560;10.062;2023-11-19T00:15:00;5.10;;;4.70;;
9972;SDS011;5027;53.560;10.062;2023-11-19T00:17:27;4.97;;;4.57;;
9972;SDS011;5027;53.560;10.062;2023-11-19T00:19:54;4.97;;;4.57;;
9972;SDS011;5027;53.560;10.062;2023-11-19T00:22:21;5.33;;;4.83;;
9972;SDS011;5027;53.560;10.062;2023-11-19T00:24:48;5.63;;;4.33;;
9972;SDS011;5027;53.560;10.062;2023-11-19T00:27:16;4.87;;;4.37;;
9972;SDS011;5027;53.560;10.062;2023-11-19T00:29:42;5.70;;;4.20;;
9972;SDS011;5027;53.560;10.062;2023-11-19T00:32:11;4.70;;;4.30;;
9972;SDS011;5027;53.560;10.062;2023-11-19T00:34:38;4.70;;;4.30;;
9972;SDS011;5027;53.560;10.062;2023-11-19T00:37:05;4.97;;;4.47;;
9972;SDS011;5027;53.560;10.062;2023-11-19T00:39:33;4.77;;;4.00;;
9972;SDS011;5027;53.560;10.062;2023-11-19T00:41:59;4.20;;;3.80;;
9972;SDS011;5027;53.560;10.062;2023-11-19T00:44:26;5.47;;;4.30;;
9972;SDS011;5027;53.560;10.062;2023-11-19T00:46:53;3.60;;;3.30;;
9972;SDS011;5027;53.560;10.062;2023-11-19T00:49:19;3.63;;;3.33;;
9972;SDS011;5027;53.560;10.062;2023-11-19T00:51:46;3.67;;;3.30;;
9972;SDS011;5027;53.560;10.062;2023-11-19T00:54:13;3.60;;;3.30;;
9972;SDS011;5027;53.560;10.062;2023-11-19T00:56:40;3.77;;;3.20;;
9972;SDS011;5027;53.560;10.062;2023-11-19T00:59:06;3.17;;;2.93;;
9972;SDS011;5027;53.560;10.062;2023-11-19T01:01:33;5.63;;;3.50;;
9972;SDS011;5027;53.560;10.062;2023-11-19T01:04:01;3.43;;;3.13;;
9972;SDS011;5027;53.560;10.062;2023-11-19T01:06:29;5.27;;;3.10;;
9972;SDS011;5027;53.560;10.062;2023-11-19T01:08:56;5.87;;;3.57;;
9972;SDS011;5027;53.560;10.062;2023-11-19T01:11:24;3.10;;;2.90;;
9972;SDS011;5027;53.560;10.062;2023-11-19T01:13:52;2.63;;;2.43;;
9972;SDS011;5027;53.560;10.062;2023-11-19T01:16:18;2.90;;;2.70;;
9972;SDS011;5027;53.560;10.062;2023-11-19T01:18:46;2.93;;;2.73;;
9972;SDS011;5027;53.560;10.062;2023-11-19T01:21:14;2.63;;;2.30;;
9972;SDS011;5027;53.560;10.062;2023-11-19T01:23:41;6.83;;;2.40;;
9972;SDS011;5027;53.560;10.062;2023-11-19T01:26:10;2.50;;;2.30;;
9972;SDS011;5027;53.560;10.062;2023-11-19T01:28:37;2.20;;;2.00;;
9972;SDS011;5027;53.560;10.062;2023-11-19T01:31:17;2.47;;;2.20;;
9972;SDS011;5027;53.560;10.062;2023-11-19T01:33:44;3.20;;;2.30;;
9972;SDS011;5027;53.560;10.062;2023-11-19T01:36:13;2.43;;;2.23;;
9972;SDS011;5027;53.560;10.062;2023-11-19T01:38:40;2.13;;;1.90;;
9972;SDS011;5027;53.560;10.062;2023-11-19T01:41:07;2.57;;;1.80;;
9972;SDS011;5027;53.560;10.062;2023-11-19T01:43:35;2.23;;;2.13;;
9972;SDS011;5027;53.560;10.062;2023-11-19T01:46:04;2.03;;;1.93;;
9972;SDS011;5027;53.560;10.062;2023-11-19T01:48:35;2.07;;;1.97;;
9972;SDS011;5027;53.560;10.062;2023-11-19T01:51:06;1.93;;;1.83;;
9972;SDS011;5027;53.560;10.062;2023-11-19T01:53:34;2.00;;;1.90;;
9972;SDS011;5027;53.560;10.062;2023-11-19T01:56:04;2.10;;;1.67;;
9972;SDS011;5027;53.560;10.062;2023-11-19T01:58:35;2.27;;;2.07;;
9972;SDS011;5027;53.560;10.062;2023-11-19T02:01:02;2.77;;;1.80;;
9972;SDS011;5027;53.560;10.062;2023-11-19T02:03:31;2.03;;;1.80;;
9972;SDS011;5027;53.560;10.062;2023-11-19T02:06:00;1.60;;;1.50;;
9972;SDS011;5027;53.560;10.062;2023-11-19T02:08:27;1.70;;;1.60;;
9972;SDS011;5027;53.560;10.062;2023-11-19T02:10:53;2.87;;;1.70;;
9972;SDS011;5027;53.560;10.062;2023-11-19T02:13:26;1.50;;;1.40;;
9972;SDS011;5027;53.560;10.062;2023-11-19T02:15:53;1.83;;;1.63;;
9972;SDS011;5027;53.560;10.062;2023-11-19T02:18:22;1.43;;;1.33;;
9972;SDS011;5027;53.560;10.062;2023-11-19T02:20:54;1.50;;;1.40;;
9972;SDS011;5027;53.560;10.062;2023-11-19T02:23:22;1.70;;;1.60;;
9972;SDS011;5027;53.560;10.062;2023-11-19T02:25:56;1.70;;;1.60;;
9972;SDS011;5027;53.560;10.062;2023-11-19T02:28:26;2.63;;;1.50;;
9972;SDS011;5027;53.560;10.062;2023-11-19T02:30:53;2.17;;;1.50;;
9972;SDS011;5027;53.560;10.062;2023-11-19T02:33:20;2.07;;;1.60;;
9972;SDS011;5027;53.560;10.062;2023-11-19T02:35:46;2.20;;;2.00;;
9972;SDS011;5027;53.560;10.062;2023-11-19T02:38:13;2.40;;;2.20;;
9972;SDS011;5027;53.560;10.062;2023-11-19T02:40:40;1.83;;;1.73;;
9972;SDS011;5027;53.560;10.062;2023-11-19T02:43:07;1.60;;;1.50;;
9972;SDS011;5027;53.560;10.062;2023-11-19T02:45:34;1.60;;;1.50;;
9972;SDS011;5027;53.560;10.062;2023-11-19T02:48:02;1.60;;;1.50;;
9972;SDS011;5027;53.560;10.062;2023-11-19T02:50:29;1.70;;;1.57;;
9972;SDS011;5027;53.560;10.062;2023-11-19T02:52:57;1.53;;;1.43;;
9972;SDS011;5027;53.560;10.062;2023-11-19T02:55:24;1.47;;;1.37;;
9972;SDS011;5027;53.560;10.062;2023-11-19T02:57:51;1.30;;;1.20;;
9972;SDS011;5027;53.560;10.062;2023-11-19T03:00:23;1.60;;;1.50;;
9972;SDS011;5027;53.560;10.062;2023-11-19T03:02:51;1.53;;;1.43;;
9972;SDS011;5027;53.560;10.062;2023-11-19T03:05:36;1.50;;;1.40;;
9972;SDS011;5027;53.560;10.062;2023-11-19T03:08:03;1.40;;;1.30;;
9972;SDS011;5027;53.560;10.062;2023-11-19T03:10:30;1.50;;;1.40;;
9972;SDS011;5027;53.560;10.062;2023-11-19T03:12:57;1.40;;;1.30;;
9972;SDS011;5027;53.560;10.062;2023-11-19T03:15:24;1.20;;;1.20;;
9972;SDS011;5027;53.560;10.062;2023-11-19T03:17:51;1.00;;;1.00;;
9972;SDS011;5027;53.560;10.062;2023-11-19T03:20:18;1.30;;;1.20;;
9972;SDS011;5027;53.560;10.062;2023-11-19T03:22:44;1.30;;;1.20;;
9972;SDS011;5027;53.560;10.062;2023-11-19T03:25:11;1.00;;;1.00;;
9972;SDS011;5027;53.560;10.062;2023-11-19T03:27:39;0.90;;;0.90;;
9972;SDS011;5027;53.560;10.062;2023-11-19T03:30:11;1.17;;;1.00;;
9972;SDS011;5027;53.560;10.062;2023-11-19T03:32:38;1.03;;;1.03;;
9972;SDS011;5027;53.560;10.062;2023-11-19T03:35:05;1.07;;;1.07;;
9972;SDS011;5027;53.560;10.062;2023-11-19T03:37:35;0.80;;;0.80;;
9972;SDS011;5027;53.560;10.062;2023-11-19T03:40:03;1.10;;;1.00;;
9972;SDS011;5027;53.560;10.062;2023-11-19T03:42:30;1.87;;;1.10;;
9972;SDS011;5027;53.560;10.062;2023-11-19T03:44:57;1.00;;;1.00;;
9972;SDS011;5027;53.560;10.062;2023-11-19T03:47:25;1.30;;;1.20;;
9972;SDS011;5027;53.560;10.062;2023-11-19T03:49:52;1.07;;;1.07;;
9972;SDS011;5027;53.560;10.062;2023-11-19T03:52:18;1.10;;;1.10;;
9972;SDS011;5027;53.560;10.062;2023-11-19T03:54:46;3.43;;;1.10;;
9972;SDS011;5027;53.560;10.062;2023-11-19T03:57:13;1.30;;;1.20;;
9972;SDS011;5027;53.560;10.062;2023-11-19T03:59:41;1.07;;;1.07;;
9972;SDS011;5027;53.560;10.062;2023-11-19T04:02:08;1.40;;;1.30;;
9972;SDS011;5027;53.560;10.062;2023-11-19T04:04:35;1.63;;;1.40;;
9972;SDS011;5027;53.560;10.062;2023-11-19T04:07:02;1.10;;;1.00;;
9972;SDS011;5027;53.560;10.062;2023-11-19T04:09:29;1.30;;;1.20;;
9972;SDS011;5027;53.560;10.062;2023-11-19T04:11:56;1.30;;;1.20;;
9972;SDS011;5027;53.560;10.062;2023-11-19T04:14:23;1.73;;;1.63;;
9972;SDS011;5027;53.560;10.062;2023-11-19T04:16:50;2.30;;;1.30;;
9972;SDS011;5027;53.560;10.062;2023-11-19T04:19:18;2.40;;;1.80;;
9972;SDS011;5027;53.560;10.062;2023-11-19T04:21:45;1.53;;;1.37;;
9972;SDS011;5027;53.560;10.062;2023-11-19T04:24:12;1.77;;;1.50;;
9972;SDS011;5027;53.560;10.062;2023-11-19T04:26:43;1.53;;;1.43;;
9972;SDS011;5027;53.560;10.062;2023-11-19T04:29:12;3.00;;;1.50;;
9972;SDS011;5027;53.560;10.062;2023-11-19T04:31:39;2.00;;;1.40;;
9972;SDS011;5027;53.560;10.062;2023-11-19T04:34:07;2.23;;;1.70;;
9972;SDS011;5027;53.560;10.062;2023-11-19T04:36:34;1.60;;;1.50;;
9972;SDS011;5027;53.560;10.062;2023-11-19T04:39:01;1.70;;;1.60;;
9972;SDS011;5027;53.560;10.062;2023-11-19T04:41:28;1.53;;;1.43;;
9972;SDS011;5027;53.560;10.062;2023-11-19T04:43:54;2.60;;;1.80;;
9972;SDS011;5027;53.560;10.062;2023-11-19T04:46:21;1.87;;;1.77;;
9972;SDS011;5027;53.560;10.062;2023-11-19T04:48:50;1.73;;;1.63;;
9972;SDS011;5027;53.560;10.062;2023-11-19T04:51:17;1.77;;;1.67;;
9972;SDS011;5027;53.560;10.062;2023-11-19T04:53:43;2.83;;;1.80;;
9972;SDS011;5027;53.560;10.062;2023-11-19T04:56:10;3.90;;;1.97;;
9972;SDS011;5027;53.560;10.062;2023-11-19T04:58:38;2.37;;;2.10;;
9972;SDS011;5027;53.560;10.062;2023-11-19T05:01:05;3.47;;;2.27;;
9972;SDS011;5027;53.560;10.062;2023-11-19T05:03:32;2.70;;;2.10;;
9972;SDS011;5027;53.560;10.062;2023-11-19T05:05:59;4.43;;;2.20;;
9972;SDS011;5027;53.560;10.062;2023-11-19T05:08:25;2.30;;;2.10;;
9972;SDS011;5027;53.560;10.062;2023-11-19T05:10:52;2.93;;;2.47;;
9972;SDS011;5027;53.560;10.062;2023-11-19T05:13:19;3.13;;;2.47;;
9972;SDS011;5027;53.560;10.062;2023-11-19T05:15:46;3.13;;;2.83;;
9972;SDS011;5027;53.560;10.062;2023-11-19T05:18:12;3.23;;;2.73;;
9972;SDS011;5027;53.560;10.062;2023-11-19T05:20:39;3.83;;;2.80;;
9972;SDS011;5027;53.560;10.062;2023-11-19T05:23:06;5.07;;;3.30;;
9972;SDS011;5027;53.560;10.062;2023-11-19T05:25:46;3.90;;;3.17;;
9972;SDS011;5027;53.560;10.062;2023-11-19T05:28:13;3.60;;;3.20;;
9972;SDS011;5027;53.560;10.062;2023-11-19T05:30:40;6.73;;;3.67;;
9972;SDS011;5027;53.560;10.062;2023-11-19T05:33:07;3.37;;;3.07;;
9972;SDS011;5027;53.560;10.062;2023-11-19T05:35:34;6.30;;;3.40;;
9972;SDS011;5027;53.560;10.062;2023-11-19T05:38:01;4.37;;;3.70;;
9972;SDS011;5027;53.560;10.062;2023-11-19T05:40:28;3.90;;;3.60;;
9972;SDS011;5027;53.560;10.062;2023-11-19T05:42:55;4.50;;;4.10;;
9972;SDS011;5027;53.560;10.062;2023-11-19T05:45:22;4.87;;;3.90;;
9972;SDS011;5027;53.560;10.062;2023-11-19T05:47:49;4.47;;;4.07;;
9972;SDS011;5027;53.560;10.062;2023-11-19T05:50:16;4.87;;;4.00;;
9972;SDS011;5027;53.560;10.062;2023-11-19T05:52:42;6.80;;;4.40;;
9972;SDS011;5027;53.560;10.062;2023-11-19T05:55:09;7.70;;;5.03;;
9972;SDS011;5027;53.560;10.062;2023-11-19T05:57:37;8.03;;;5.20;;
9972;SDS011;5027;53.560;10.062;2023-11-19T06:00:07;7.20;;;5.00;;
9972;SDS011;5027;53.560;10.062;2023-11-19T06:02:37;6.20;;;5.40;;
9972;SDS011;5027;53.560;10.062;2023-11-19T06:05:04;9.40;;;6.10;;
9972;SDS011;5027;53.560;10.062;2023-11-19T06:07:32;11.60;;;7.17;;
9972;SDS011;5027;53.560;10.062;2023-11-19T06:09:59;12.37;;;7.43;;
9972;SDS011;5027;53.560;10.062;2023-11-19T06:12:26;10.47;;;6.93;;
9972;SDS011;5027;53.560;10.062;2023-11-19T06:14:54;14.83;;;7.00;;
9972;SDS011;5027;53.560;10.062;2023-11-19T06:17:20;14.00;;;7.73;;
9972;SDS011;5027;53.560;10.062;2023-11-19T06:19:47;14.50;;;8.20;;
9972;SDS011;5027;53.560;10.062;2023-11-19T06:22:14;13.37;;;8.13;;
9972;SDS011;5027;53.560;10.062;2023-11-19T06:24:40;14.33;;;7.87;;
9972;SDS011;5027;53.560;10.062;2023-11-19T06:27:07;17.37;;;8.87;;
9972;SDS011;5027;53.560;10.062;2023-11-19T06:29:34;14.67;;;8.63;;
9972;SDS011;5027;53.560;10.062;2023-11-19T06:32:01;23.70;;;9.27;;
9972;SDS011;5027;53.560;10.062;2023-11-19T06:34:41;17.90;;;8.00;;
9972;SDS011;5027;53.560;10.062;2023-11-19T06:37:08;19.70;;;7.83;;
9972;SDS011;5027;53.560;10.062;2023-11-19T06:39:35;21.97;;;8.77;;
9972;SDS011;5027;53.560;10.062;2023-11-19T06:42:03;22.07;;;7.67;;
9972;SDS011;5027;53.560;10.062;2023-11-19T06:44:30;22.83;;;8.37;;
9972;SDS011;5027;53.560;10.062;2023-11-19T06:46:56;24.27;;;7.67;;
9972;SDS011;5027;53.560;10.062;2023-11-19T06:49:23;21.73;;;7.57;;
9972;SDS011;5027;53.560;10.062;2023-11-19T06:51:51;23.50;;;8.27;;
9972;SDS011;5027;53.560;10.062;2023-11-19T06:54:17;20.07;;;8.03;;
9972;SDS011;5027;53.560;10.062;2023-11-19T06:56:44;27.27;;;7.93;;
9972;SDS011;5027;53.560;10.062;2023-11-19T06:59:13;19.33;;;6.83;;
9972;SDS011;5027;53.560;10.062;2023-11-19T07:01:40;19.10;;;6.97;;
9972;SDS011;5027;53.560;10.062;2023-11-19T07:04:10;27.33;;;9.33;;
9972;SDS011;5027;53.560;10.062;2023-11-19T07:06:38;23.20;;;8.67;;
9972;SDS011;5027;53.560;10.062;2023-11-19T07:09:08;28.93;;;8.70;;
9972;SDS011;5027;53.560;10.062;2023-11-19T07:11:39;25.60;;;7.60;;
9972;SDS011;5027;53.560;10.062;2023-11-19T07:14:07;20.03;;;6.93;;
9972;SDS011;5027;53.560;10.062;2023-11-19T07:16:35;22.07;;;6.80;;
9972;SDS011;5027;53.560;10.062;2023-11-19T07:19:05;22.33;;;6.80;;
9972;SDS011;5027;53.560;10.062;2023-11-19T07:21:32;26.77;;;7.57;;
9972;SDS011;5027;53.560;10.062;2023-11-19T07:23:59;17.83;;;6.50;;
9972;SDS011;5027;53.560;10.062;2023-11-19T07:26:26;24.40;;;6.70;;
9972;SDS011;5027;53.560;10.062;2023-11-19T07:28:53;21.17;;;6.93;;
9972;SDS011;5027;53.560;10.062;2023-11-19T07:31:21;19.57;;;6.50;;
9972;SDS011;5027;53.560;10.062;2023-11-19T07:33:50;13.73;;;4.83;;
9972;SDS011;5027;53.560;10.062;2023-11-19T07:36:16;21.07;;;6.30;;
9972;SDS011;5027;53.560;10.062;2023-11-19T07:38:43;19.63;;;5.83;;
9972;SDS011;5027;53.560;10.062;2023-11-19T07:41:11;23.47;;;6.40;;
9972;SDS011;5027;53.560;10.062;2023-11-19T07:43:39;19.83;;;5.83;;
9972;SDS011;5027;53.560;10.062;2023-11-19T07:46:11;18.97;;;5.47;;
9972;SDS011;5027;53.560;10.062;2023-11-19T07:48:39;27.50;;;6.67;;
9972;SDS011;5027;53.560;10.062;2023-11-19T07:51:08;24.57;;;6.23;;
9972;SDS011;5027;53.560;10.062;2023-11-19T07:53:37;17.40;;;5.87;;
9972;SDS011;5027;53.560;10.062;2023-11-19T07:56:04;20.73;;;6.20;;
9972;SDS011;5027;53.560;10.062;2023-11-19T07:58:31;20.30;;;5.80;;
9972;SDS011;5027;53.560;10.062;2023-11-19T08:00:58;22.13;;;6.33;;
9972;SDS011;5027;53.560;10.062;2023-11-19T08:03:25;22.47;;;6.73;;
9972;SDS011;5027;53.560;10.062;2023-11-19T08:05:55;27.10;;;6.27;;
9972;SDS011;5027;53.560;10.062;2023-11-19T08:08:25;24.70;;;6.90;;
9972;SDS011;5027;53.560;10.062;2023-11-19T08:10:52;19.80;;;6.37;;
9972;SDS011;5027;53.560;10.062;2023-11-19T08:13:20;21.87;;;5.67;;
9972;SDS011;5027;53.560;10.062;2023-11-19T08:15:47;28.57;;;7.97;;
9972;SDS011;5027;53.560;10.062;2023-11-19T08:18:13;29.20;;;6.97;;
9972;SDS011;5027;53.560;10.062;2023-11-19T08:20:40;30.97;;;7.47;;
9972;SDS011;5027;53.560;10.062;2023-11-19T08:23:09;23.70;;;7.07;;
9972;SDS011;5027;53.560;10.062;2023-11-19T08:25:35;35.33;;;7.47;;
9972;SDS011;5027;53.560;10.062;2023-11-19T08:28:02;20.27;;;5.43;;
9972;SDS011;5027;53.560;10.062;2023-11-19T08:30:29;17.70;;;5.53;;
9972;SDS011;5027;53.560;10.062;2023-11-19T08:32:56;30.77;;;7.27;;
9972;SDS011;5027;53.560;10.062;2023-11-19T08:35:25;30.30;;;7.37;;
9972;SDS011;5027;53.560;10.062;2023-11-19T08:37:51;26.10;;;6.77;;
9972;SDS011;5027;53.560;10.062;2023-11-19T08:40:19;29.57;;;6.83;;
9972;SDS011;5027;53.560;10.062;2023-11-19T08:42:46;20.67;;;5.83;;
9972;SDS011;5027;53.560;10.062;2023-11-19T08:45:13;32.63;;;7.60;;
9972;SDS011;5027;53.560;10.062;2023-11-19T08:47:39;32.93;;;8.07;;
9972;SDS011;5027;53.560;10.062;2023-11-19T08:50:07;32.10;;;7.30;;
9972;SDS011;5027;53.560;10.062;2023-11-19T08:52:34;26.10;;;6.77;;
9972;SDS011;5027;53.560;10.062;2023-11-19T08:55:01;25.60;;;7.30;;
9972;SDS011;5027;53.560;10.062;2023-11-19T08:57:29;29.33;;;7.43;;
9972;SDS011;5027;53.560;10.062;2023-11-19T08:59:56;30.50;;;7.87;;
9972;SDS011;5027;53.560;10.062;2023-11-19T09:02:22;31.77;;;7.53;;
9972;SDS011;5027;53.560;10.062;2023-11-19T09:04:49;31.97;;;7.70;;
9972;SDS011;5027;53.560;10.062;2023-11-19T09:07:19;28.20;;;6.40;;
9972;SDS011;5027;53.560;10.062;2023-11-19T09:09:47;32.50;;;7.10;;
9972;SDS011;5027;53.560;10.062;2023-11-19T09:12:14;24.47;;;7.40;;
9972;SDS011;5027;53.560;10.062;2023-11-19T09:14:41;32.07;;;8.03;;
9972;SDS011;5027;53.560;10.062;2023-11-19T09:17:08;26.40;;;6.87;;
9972;SDS011;5027;53.560;10.062;2023-11-19T09:19:36;32.67;;;8.13;;
9972;SDS011;5027;53.560;10.062;2023-11-19T09:22:03;29.70;;;8.10;;
9972;SDS011;5027;53.560;10.062;2023-11-19T09:24:30;25.73;;;7.53;;
9972;SDS011;5027;53.560;10.062;2023-11-19T09:26:56;31.87;;;8.37;;
9972;SDS011;5027;53.560;10.062;2023-11-19T09:29:23;28.87;;;7.27;;
9972;SDS011;5027;53.560;10.062;2023-11-19T09:31:50;30.93;;;8.63;;
9972;SDS011;5027;53.560;10.062;2023-11-19T09:34:17;32.73;;;8.17;;
9972;SDS011;5027;53.560;10.062;2023-11-19T09:36:44;33.40;;;8.83;;
9972;SDS011;5027;53.560;10.062;2023-11-19T09:39:11;35.33;;;8.87;;
9972;SDS011;5027;53.560;10.062;2023-11-19T09:41:41;31.03;;;8.60;;
9972;SDS011;5027;53.560;10.062;2023-11-19T09:44:08;37.17;;;8.90;;
9972;SDS011;5027;53.560;10.062;2023-11-19T09:46:38;31.87;;;8.57;;
9972;SDS011;5027;53.560;10.062;2023-11-19T09:49:08;31.60;;;8.27;;
9972;SDS011;5027;53.560;10.062;2023-11-19T09:51:36;18.17;;;5.20;;
9972;SDS011;5027;53.560;10.062;2023-11-19T09:54:03;30.20;;;8.23;;
9972;SDS011;5027;53.560;10.062;2023-11-19T09:56:30;27.07;;;7.00;;
9972;SDS011;5027;53.560;10.062;2023-11-19T09:58:59;40.33;;;9.57;;
9972;SDS011;5027;53.560;10.062;2023-11-19T10:01:26;26.97;;;6.83;;
9972;SDS011;5027;53.560;10.062;2023-11-19T10:03:55;27.70;;;6.90;;
9972;SDS011;5027;53.560;10.062;2023-11-19T10:06:22;40.10;;;8.87;;
9972;SDS011;5027;53.560;10.062;2023-11-19T10:08:51;30.53;;;8.07;;
9972;SDS011;5027;53.560;10.062;2023-11-19T10:11:17;36.17;;;9.03;;
9972;SDS011;5027;53.560;10.062;2023-11-19T10:13:44;38.90;;;9.23;;
9972;SDS011;5027;53.560;10.062;2023-11-19T10:16:14;29.20;;;8.87;;
9972;SDS011;5027;53.560;10.062;2023-11-19T10:18:48;30.63;;;8.53;;
9972;SDS011;5027;53.560;10.062;2023-11-19T10:21:17;25.33;;;7.13;;
9972;SDS011;5027;53.560;10.062;2023-11-19T10:23:54;37.10;;;8.67;;
9972;SDS011;5027;53.560;10.062;2023-11-19T10:26:26;36.97;;;8.90;;
9972;SDS011;5027;53.560;10.062;2023-11-19T10:28:54;36.53;;;8.60;;
9972;SDS011;5027;53.560;10.062;2023-11-19T10:31:22;33.10;;;8.73;;
9972;SDS011;5027;53.560;10.062;2023-11-19T10:33:52;33.07;;;8.97;;
9972;SDS011;5027;53.560;10.062;2023-11-19T10:36:20;29.60;;;8.13;;
9972;SDS011;5027;53.560;10.062;2023-11-19T10:38:52;32.60;;;8.90;;
9972;SDS011;5027;53.560;10.062;2023-11-19T10:41:29;38.80;;;9.83;;
9972;SDS011;5027;53.560;10.062;2023-11-19T10:43:58;33.83;;;9.10;;
9972;SDS011;5027;53.560;10.062;2023-11-19T10:46:41;38.23;;;9.40;;
9972;SDS011;5027;53.560;10.062;2023-11-19T10:49:09;31.60;;;8.40;;
9972;SDS011;5027;53.560;10.062;2023-11-19T10:51:37;34.87;;;8.60;;
9972;SDS011;5027;53.560;10.062;2023-11-19T10:54:11;32.23;;;8.63;;
9972;SDS011;5027;53.560;10.062;2023-11-19T10:56:40;30.53;;;9.30;;
9972;SDS011;5027;53.560;10.062;2023-11-19T10:59:10;32.13;;;8.57;;
9972;SDS011;5027;53.560;10.062;2023-11-19T11:01:46;32.57;;;9.17;;
9972;SDS011;5027;53.560;10.062;2023-11-19T11:04:18;30.83;;;8.07;;
9972;SDS011;5027;53.560;10.062;2023-11-19T11:06:48;34.90;;;8.90;;
9972;SDS011;5027;53.560;10.062;2023-11-19T11:09:17;33.70;;;8.17;;
9972;SDS011;5027;53.560;10.062;2023-11-19T11:11:46;31.20;;;9.00;;
9972;SDS011;5027;53.560;10.062;2023-11-19T11:14:13;29.53;;;9.83;;
9972;SDS011;5027;53.560;10.062;2023-11-19T11:16:44;27.83;;;8.00;;
9972;SDS011;5027;53.560;10.062;2023-11-19T11:19:15;30.77;;;8.80;;
9972;SDS011;5027;53.560;10.062;2023-11-19T11:21:43;32.17;;;8.27;;
9972;SDS011;5027;53.560;10.062;2023-11-19T11:24:34;35.13;;;8.00;;
9972;SDS011;5027;53.560;10.062;2023-11-19T11:30:38;36.70;;;8.13;;
9972;SDS011;5027;53.560;10.062;2023-11-19T11:33:32;27.97;;;7.47;;
9972;SDS011;5027;53.560;10.062;2023-11-19T11:36:22;32.87;;;8.53;;
9972;SDS011;5027;53.560;10.062;2023-11-19T11:38:49;31.40;;;8.67;;
9972;SDS011;5027;53.560;10.062;2023-11-19T11:41:17;32.83;;;8.83;;
9972;SDS011;5027;53.560;10.062;2023-11-19T11:43:52;33.57;;;8.57;;
9972;SDS011;5027;53.560;10.062;2023-11-19T11:49:05;27.60;;;7.77;;
9972;SDS011;5027;53.560;10.062;2023-11-19T11:54:10;38.60;;;8.30;;
9972;SDS011;5027;53.560;10.062;2023-11-19T11:56:37;32.27;;;8.27;;
9972;SDS011;5027;53.560;10.062;2023-11-19T11:59:08;32.97;;;9.00;;
9972;SDS011;5027;53.560;10.062;2023-11-19T12:01:57;25.43;;;7.40;;
9972;SDS011;5027;53.560;10.062;2023-11-19T12:04:28;29.57;;;8.40;;
9972;SDS011;5027;53.560;10.062;2023-11-19T12:09:32;32.57;;;8.03;;
9972;SDS011;5027;53.560;10.062;2023-11-19T12:12:07;36.67;;;8.93;;
9972;SDS011;5027;53.560;10.062;2023-11-19T12:20:00;29.90;;;8.23;;
9972;SDS011;5027;53.560;10.062;2023-11-19T12:22:28;31.03;;;8.13;;
9972;SDS011;5027;53.560;10.062;2023-11-19T12:24:55;30.70;;;8.03;;
9972;SDS011;5027;53.560;10.062;2023-11-19T12:27:22;24.10;;;7.80;;
9972;SDS011;5027;53.560;10.062;2023-11-19T12:29:49;28.87;;;7.87;;
9972;SDS011;5027;53.560;10.062;2023-11-19T12:32:16;26.53;;;7.03;;
9972;SDS011;5027;53.560;10.062;2023-11-19T12:34:44;29.67;;;7.50;;
9972;SDS011;5027;53.560;10.062;2023-11-19T12:37:11;27.13;;;7.97;;
9972;SDS011;5027;53.560;10.062;2023-11-19T12:39:38;10.60;;;4.10;;
9972;SDS011;5027;53.560;10.062;2023-11-19T12:42:06;28.17;;;7.50;;
9972;SDS011;5027;53.560;10.062;2023-11-19T12:44:39;26.83;;;7.33;;
9972;SDS011;5027;53.560;10.062;2023-11-19T12:47:17;32.93;;;8.20;;
9972;SDS011;5027;53.560;10.062;2023-11-19T12:49:54;28.17;;;8.00;;
9972;SDS011;5027;53.560;10.062;2023-11-19T12:52:22;31.07;;;7.67;;
9972;SDS011;5027;53.560;10.062;2023-11-19T12:54:49;27.50;;;6.97;;
9972;SDS011;5027;53.560;10.062;2023-11-19T12:57:17;21.87;;;6.57;;
9972;SDS011;5027;53.560;10.062;2023-11-19T12:59:55;24.23;;;7.57;;
9972;SDS011;5027;53.560;10.062;2023-11-19T13:02:44;25.83;;;7.33;;
9972;SDS011;5027;53.560;10.062;2023-11-19T13:05:31;26.10;;;7.50;;
9972;SDS011;5027;53.560;10.062;2023-11-19T13:08:00;25.87;;;7.33;;
9972;SDS011;5027;53.560;10.062;2023-11-19T13:10:49;30.63;;;8.30;;
9972;SDS011;5027;53.560;10.062;2023-11-19T13:13:21;27.17;;;7.43;;
9972;SDS011;5027;53.560;10.062;2023-11-19T13:15:48;29.13;;;7.50;;
9972;SDS011;5027;53.560;10.062;2023-11-19T13:18:16;30.17;;;8.03;;
9972;SDS011;5027;53.560;10.062;2023-11-19T13:20:43;31.00;;;8.43;;
9972;SDS011;5027;53.560;10.062;2023-11-19T13:23:10;11.47;;;4.73;;
9972;SDS011;5027;53.560;10.062;2023-11-19T13:25:36;24.40;;;7.57;;
9972;SDS011;5027;53.560;10.062;2023-11-19T13:28:03;27.17;;;7.83;;
9972;SDS011;5027;53.560;10.062;2023-11-19T13:30:32;29.23;;;8.33;;
9972;SDS011;5027;53.560;10.062;2023-11-19T13:32:58;32.30;;;8.37;;
9972;SDS011;5027;53.560;10.062;2023-11-19T13:35:27;28.87;;;7.57;;
9972;SDS011;5027;53.560;10.062;2023-11-19T13:37:54;23.00;;;6.90;;
9972;SDS011;5027;53.560;10.062;2023-11-19T13:40:21;30.93;;;8.30;;
9972;SDS011;5027;53.560;10.062;2023-11-19T13:42:48;25.53;;;7.37;;
9972;SDS011;5027;53.560;10.062;2023-11-19T13:45:15;24.87;;;7.70;;
9972;SDS011;5027;53.560;10.062;2023-11-19T13:47:44;30.63;;;8.30;;
9972;SDS011;5027;53.560;10.062;2023-11-19T13:50:13;29.23;;;8.27;;
9972;SDS011;5027;53.560;10.062;2023-11-19T13:52:41;32.73;;;8.23;;
9972;SDS011;5027;53.560;10.062;2023-11-19T13:55:11;26.33;;;7.47;;
9972;SDS011;5027;53.560;10.062;2023-11-19T13:57:38;34.60;;;8.50;;
9972;SDS011;5027;53.560;10.062;2023-11-19T14:00:07;26.53;;;7.53;;
9972;SDS011;5027;53.560;10.062;2023-11-19T14:02:39;28.27;;;8.07;;
9972;SDS011;5027;53.560;10.062;2023-11-19T14:05:07;36.03;;;8.67;;
9972;SDS011;5027;53.560;10.062;2023-11-19T14:07:34;29.97;;;8.50;;
9972;SDS011;5027;53.560;10.062;2023-11-19T14:10:01;25.97;;;7.03;;
9972;SDS011;5027;53.560;10.062;2023-11-19T14:12:29;29.50;;;7.80;;
9972;SDS011;5027;53.560;10.062;2023-11-19T14:14:56;28.63;;;7.90;;
9972;SDS011;5027;53.560;10.062;2023-11-19T14:17:23;21.40;;;6.40;;
9972;SDS011;5027;53.560;10.062;2023-11-19T14:19:51;25.67;;;8.07;;
9972;SDS011;5027;53.560;10.062;2023-11-19T14:22:18;25.43;;;6.43;;
9972;SDS011;5027;53.560;10.062;2023-11-19T14:24:45;30.57;;;8.03;;
9972;SDS011;5027;53.560;10.062;2023-11-19T14:27:12;25.20;;;7.47;;
9972;SDS011;5027;53.560;10.062;2023-11-19T14:29:38;26.87;;;6.97;;
9972;SDS011;5027;53.560;10.062;2023-11-19T14:32:06;31.40;;;8.30;;
9972;SDS011;5027;53.560;10.062;2023-11-19T14:34:33;23.63;;;6.93;;
9972;SDS011;5027;53.560;10.062;2023-11-19T14:37:00;23.60;;;6.90;;
9972;SDS011;5027;53.560;10.062;2023-11-19T14:39:27;23.43;;;7.20;;
9972;SDS011;5027;53.560;10.062;2023-11-19T14:41:55;26.47;;;7.03;;
9972;SDS011;5027;53.560;10.062;2023-11-19T14:44:24;24.93;;;6.63;;
9972;SDS011;5027;53.560;10.062;2023-11-19T14:46:51;24.03;;;7.43;;
9972;SDS011;5027;53.560;10.062;2023-11-19T14:49:18;25.53;;;7.07;;
9972;SDS011;5027;53.560;10.062;2023-11-19T14:51:45;24.60;;;7.40;;
9972;SDS011;5027;53.560;10.062;2023-11-19T14:54:14;24.30;;;6.80;;
9972;SDS011;5027;53.560;10.062;2023-11-19T14:56:42;25.37;;;7.17;;
9972;SDS011;5027;53.560;10.062;2023-11-19T14:59:09;23.80;;;6.50;;
9972;SDS011;5027;53.560;10.062;2023-11-19T15:01:36;26.93;;;7.20;;
9972;SDS011;5027;53.560;10.062;2023-11-19T15:04:03;26.73;;;6.83;;
9972;SDS011;5027;53.560;10.062;2023-11-19T15:06:32;23.03;;;6.87;;
9972;SDS011;5027;53.560;10.062;2023-11-19T15:09:00;26.13;;;7.30;;
9972;SDS011;5027;53.560;10.062;2023-11-19T15:11:27;21.40;;;6.80;;
9972;SDS011;5027;53.560;10.062;2023-11-19T15:13:54;16.30;;;5.00;;
9972;SDS011;5027;53.560;10.062;2023-11-19T15:16:21;9.07;;;2.70;;